createdAt,value
2022-08-05T00:03:30.284Z,21.16
2022-08-05T00:08:34.835Z,21.18
2022-08-05T00:13:40.097Z,21.28
2022-08-05T00:18:48.181Z,21.32
2022-08-05T00:24:05.098Z,21.38
2022-08-05T00:29:12.666Z,21.35
2022-08-05T00:34:53.354Z,21.40
2022-08-05T00:39:41.581Z,21.29
2022-08-05T00:44:58.893Z,21.33
2022-08-05T00:50:01.592Z,21.31
2022-08-05T00:55:04.713Z,21.24
2022-08-05T01:00:11.242Z,21.30
2022-08-05T01:05:15.292Z,21.33
2022-08-05T01:10:19.306Z,21.30
2022-08-05T01:15:36.021Z,21.28
2022-08-05T01:21:06.453Z,21.24
2022-08-05T01:26:37.838Z,21.14
2022-08-05T01:31:48.867Z,21.18
2022-08-05T01:37:00.466Z,21.00
2022-08-05T01:42:03.497Z,21.10
2022-08-05T01:47:06.705Z,21.09
2022-08-05T01:52:12.370Z,21.09
2022-08-05T01:58:10.720Z,21.00
2022-08-05T02:03:03.651Z,20.92
2022-08-05T02:08:06.025Z,20.84
2022-08-05T02:13:16.064Z,20.83
2022-08-05T02:18:31.858Z,20.89
2022-08-05T02:23:39.112Z,20.87
2022-08-05T02:28:45.753Z,20.63
2022-08-05T02:33:57.215Z,20.70
2022-08-05T02:39:02.397Z,20.71
2022-08-05T02:44:13.236Z,20.73
2022-08-05T02:49:16.507Z,20.73
2022-08-05T02:54:18.706Z,20.72
2022-08-05T02:59:50.739Z,20.72
2022-08-05T03:04:55.346Z,20.68
2022-08-05T03:09:57.476Z,20.55
2022-08-05T03:14:59.445Z,20.66
2022-08-05T03:20:01.662Z,20.61
2022-08-05T03:25:33.265Z,20.63
2022-08-05T03:30:33.840Z,20.71
2022-08-05T03:35:40.783Z,20.75
2022-08-05T03:40:47.273Z,20.89
2022-08-05T03:45:55.223Z,21.40
2022-08-05T03:52:38.976Z,21.83
2022-08-05T03:56:43.024Z,22.44
2022-08-05T04:01:50.459Z,22.52
2022-08-05T04:06:53.105Z,22.84
2022-08-05T04:11:57.119Z,22.68
2022-08-05T04:17:00.558Z,22.61
2022-08-05T04:22:09.916Z,22.65
2022-08-05T04:27:15.276Z,22.83
2022-08-05T04:32:20.132Z,22.57
2022-08-05T04:38:00.871Z,22.71
2022-08-05T04:42:55.381Z,22.88
2022-08-05T04:48:18.567Z,23.05
2022-08-05T04:53:33.307Z,22.97
2022-08-05T04:58:37.478Z,23.15
2022-08-05T05:03:42.088Z,23.27
2022-08-05T05:08:44.666Z,23.35
2022-08-05T05:13:52.109Z,23.52
2022-08-05T05:19:18.592Z,23.76
2022-08-05T05:24:21.711Z,23.70
2022-08-05T05:29:23.758Z,23.86
2022-08-05T05:34:43.078Z,24.03
2022-08-05T05:39:45.291Z,24.00
2022-08-05T05:44:47.532Z,24.24
2022-08-05T05:49:56.921Z,24.24
2022-08-05T05:55:07.412Z,24.43
2022-08-05T06:00:18.635Z,24.51
2022-08-05T06:05:21.687Z,24.46
2022-08-05T06:10:29.208Z,24.61
2022-08-05T06:16:28.552Z,24.63
2022-08-05T06:20:54.201Z,24.84
2022-08-05T06:26:12.201Z,24.98
2022-08-05T06:31:17.980Z,24.89
2022-08-05T06:36:25.873Z,25.10
2022-08-05T06:41:28.070Z,25.23
2022-08-05T06:46:36.729Z,25.20
2022-08-05T06:51:40.771Z,25.21
2022-08-05T06:56:42.878Z,25.42
2022-08-05T07:01:57.170Z,25.72
2022-08-05T07:06:59.422Z,25.80
2022-08-05T07:12:01.333Z,26.04
2022-08-05T07:17:58.198Z,26.19
2022-08-05T07:22:28.992Z,26.16
2022-08-05T07:27:58.635Z,26.48
2022-08-05T07:32:55.749Z,26.46
2022-08-05T07:37:59.627Z,26.58
2022-08-05T07:43:04.902Z,26.61
2022-08-05T07:48:16.836Z,26.62
2022-08-05T07:53:50.612Z,26.76
2022-08-05T07:58:54.938Z,27.06
2022-08-05T08:04:01.598Z,27.06
2022-08-05T08:09:04.083Z,27.14
2022-08-05T08:14:09.048Z,27.12
2022-08-05T08:20:00.352Z,27.27
2022-08-05T08:24:45.997Z,27.42
2022-08-05T08:30:05.620Z,27.60
2022-08-05T08:35:16.137Z,27.57
2022-08-05T08:40:22.323Z,27.70
2022-08-05T08:45:27.130Z,27.60
2022-08-05T08:51:04.162Z,27.82
2022-08-05T08:56:04.047Z,27.85
2022-08-05T09:01:10.901Z,28.05
2022-08-05T09:06:21.280Z,28.21
2022-08-05T09:11:51.955Z,28.17
2022-08-05T09:16:49.112Z,28.34
2022-08-05T09:22:18.363Z,28.61
2022-08-05T09:28:05.539Z,28.45
2022-08-05T09:33:01.979Z,28.61
2022-08-05T09:38:17.690Z,28.70
2022-08-05T09:43:26.885Z,28.65
2022-08-05T09:48:42.377Z,28.70
2022-08-05T09:53:59.225Z,29.13
2022-08-05T09:59:08.226Z,29.04
2022-08-05T10:04:16.098Z,29.17
2022-08-05T10:09:27.266Z,29.24
2022-08-05T10:14:32.244Z,29.37
2022-08-05T10:20:03.920Z,29.22
2022-08-05T10:24:56.449Z,29.47
2022-08-05T10:30:06.804Z,29.49
2022-08-05T10:35:21.069Z,29.67
2022-08-05T10:40:45.088Z,29.77
2022-08-05T10:46:06.427Z,29.88
2022-08-05T10:51:21.759Z,29.85
2022-08-05T10:56:31.729Z,30.12
2022-08-05T11:01:54.527Z,30.38
2022-08-05T11:07:01.367Z,30.38
2022-08-05T11:12:03.897Z,30.50
2022-08-05T11:17:57.046Z,30.77
2022-08-05T11:22:50.031Z,30.86
2022-08-05T11:28:00.724Z,30.94
2022-08-05T11:33:25.693Z,31.02
2022-08-05T11:38:51.851Z,31.20
2022-08-05T11:44:06.292Z,31.19
2022-08-05T11:49:15.246Z,31.37
2022-08-05T11:54:34.493Z,31.72
2022-08-05T11:59:41.216Z,31.75
2022-08-05T12:04:59.130Z,31.96
2022-08-05T12:10:06.347Z,32.13
2022-08-05T12:15:35.764Z,31.78
2022-08-05T12:20:42.338Z,32.17
2022-08-05T12:25:56.743Z,32.32
2022-08-05T12:31:02.055Z,32.42
2022-08-05T12:36:07.210Z,32.56
2022-08-05T12:41:13.962Z,32.46
2022-08-05T12:46:31.296Z,32.76
2022-08-05T12:52:12.354Z,33.07
2022-08-05T12:57:09.645Z,32.86
2022-08-05T13:02:14.705Z,33.19
2022-08-05T13:07:41.352Z,33.07
2022-08-05T13:12:51.077Z,32.98
2022-08-05T13:17:59.929Z,33.12
2022-08-05T13:23:07.100Z,33.00
2022-08-05T13:28:10.644Z,33.27
2022-08-05T13:33:14.404Z,33.32
2022-08-05T13:38:38.399Z,33.37
2022-08-05T13:43:54.771Z,33.58
2022-08-05T13:49:01.001Z,33.74
2022-08-05T13:54:03.267Z,33.37
2022-08-05T13:59:19.731Z,33.76
2022-08-05T14:04:41.483Z,33.81
2022-08-05T14:09:46.427Z,33.90
2022-08-05T14:14:49.109Z,34.00
2022-08-05T14:19:56.160Z,33.89
2022-08-05T14:25:06.399Z,34.05
2022-08-05T14:30:26.583Z,34.00
2022-08-05T14:35:37.533Z,33.67
2022-08-05T14:40:52.020Z,33.99
2022-08-05T14:45:54.078Z,34.01
2022-08-05T14:50:56.178Z,34.30
2022-08-05T14:55:58.271Z,34.44
2022-08-05T15:01:01.342Z,34.46
2022-08-05T15:06:07.784Z,34.30
2022-08-05T15:11:15.328Z,34.46
2022-08-05T15:16:18.036Z,34.49
2022-08-05T15:21:21.295Z,34.45
2022-08-05T15:26:32.087Z,34.53
2022-08-05T15:31:34.733Z,34.67
2022-08-05T15:36:37.233Z,34.32
2022-08-05T15:41:58.353Z,33.80
2022-08-05T15:47:01.796Z,33.97
2022-08-05T15:52:16.309Z,34.21
2022-08-05T15:57:26.228Z,34.40
2022-08-05T16:02:35.368Z,34.41
2022-08-05T16:07:37.479Z,34.55
2022-08-05T16:12:39.327Z,34.78
2022-08-05T16:17:41.312Z,34.90
2022-08-05T16:22:43.338Z,34.97
2022-08-05T16:28:00.961Z,35.20
2022-08-05T16:33:07.542Z,35.19
2022-08-05T16:38:24.752Z,35.33
2022-08-05T16:43:32.997Z,35.49
2022-08-05T16:48:36.078Z,35.66
2022-08-05T16:54:05.686Z,36.23
2022-08-05T16:59:08.197Z,36.85
2022-08-05T17:04:10.710Z,37.62
2022-08-05T17:09:12.525Z,38.21
2022-08-05T17:14:22.143Z,38.02
2022-08-05T17:19:36.516Z,35.77
2022-08-05T17:24:45.421Z,34.79
2022-08-05T17:30:02.305Z,33.91
2022-08-05T17:35:05.235Z,33.18
2022-08-05T17:40:12.771Z,32.67
2022-08-05T17:45:20.421Z,33.03
2022-08-05T17:50:29.924Z,32.67
2022-08-05T17:55:37.147Z,32.37
2022-08-05T18:00:44.971Z,32.00
2022-08-05T18:05:53.039Z,31.65
2022-08-05T18:10:55.676Z,31.36
2022-08-05T18:16:00.202Z,30.31
2022-08-05T18:21:03.790Z,29.90
2022-08-05T18:26:18.731Z,29.61
2022-08-05T18:31:23.640Z,29.34
2022-08-05T18:36:27.917Z,29.16
2022-08-05T18:41:55.434Z,28.92
2022-08-05T18:46:52.453Z,28.74
2022-08-05T18:52:13.537Z,28.56
2022-08-05T18:57:18.969Z,28.37
2022-08-05T19:02:27.167Z,28.15
2022-08-05T19:07:45.084Z,27.98
2022-08-05T19:12:48.874Z,27.76
2022-08-05T19:17:59.575Z,27.69
2022-08-05T19:23:22.672Z,27.54
2022-08-05T19:28:35.444Z,27.32
2022-08-05T19:33:38.187Z,27.30
2022-08-05T19:38:43.894Z,27.17
2022-08-05T19:44:05.966Z,27.06
2022-08-05T19:49:08.124Z,27.06
2022-08-05T19:54:25.640Z,27.06
2022-08-05T20:00:01.280Z,27.04
2022-08-05T20:04:58.610Z,27.01
2022-08-05T20:10:01.427Z,26.96
2022-08-05T20:15:07.569Z,26.97
2022-08-05T20:20:11.240Z,26.81
2022-08-05T20:25:13.205Z,26.92
2022-08-05T20:30:15.470Z,26.81
2022-08-05T20:35:22.192Z,26.80
2022-08-05T20:40:24.275Z,26.69
2022-08-05T20:45:47.736Z,26.65
2022-08-05T20:50:52.520Z,26.56
2022-08-05T20:56:08.438Z,26.53
2022-08-05T21:01:11.353Z,26.45
2022-08-05T21:06:28.283Z,26.35
2022-08-05T21:12:09.512Z,26.25
2022-08-05T21:16:53.011Z,26.22
2022-08-05T21:21:55.574Z,26.09
2022-08-05T21:26:58.253Z,26.04
2022-08-05T21:32:04.674Z,26.03
2022-08-05T21:37:08.270Z,26.01
2022-08-05T21:42:30.573Z,25.88
2022-08-05T21:47:55.985Z,25.83
2022-08-05T21:52:58.583Z,25.78
2022-08-05T21:58:01.314Z,25.80
2022-08-05T22:03:05.656Z,25.69
2022-08-05T22:08:07.825Z,25.80
2022-08-05T22:14:06.168Z,25.64
2022-08-05T22:18:49.109Z,25.59
2022-08-05T22:24:13.227Z,25.40
2022-08-05T22:29:33.100Z,25.42
2022-08-05T22:34:35.237Z,25.46
2022-08-05T22:39:38.498Z,25.42
2022-08-05T22:44:47.065Z,25.35
2022-08-05T22:50:20.555Z,25.31
2022-08-05T22:55:24.673Z,25.20
2022-08-05T23:00:28.547Z,25.17
2022-08-05T23:05:36.207Z,25.10
2022-08-05T23:10:38.782Z,24.91
2022-08-05T23:15:40.963Z,24.98
2022-08-05T23:20:43.338Z,25.00
2022-08-05T23:25:51.328Z,24.94
2022-08-05T23:31:16.602Z,24.93
2022-08-05T23:36:19.633Z,24.88
2022-08-05T23:41:21.898Z,24.84
2022-08-05T23:46:24.102Z,24.69
2022-08-05T23:51:26.381Z,24.76
2022-08-05T23:56:28.577Z,24.72
